sensor_id;sensor_type;location;lat;lon;timestamp;temperature;humidity
3919;DHT22;1974;48.670;8.994;2023-01-04T00:01:23;3.50;99.90
3919;DHT22;1974;48.670;8.994;2023-01-04T00:03:50;3.50;99.90
3919;DHT22;1974;48.670;8.994;2023-01-04T00:06:18;3.50;99.90
3919;DHT22;1974;48.670;8.994;2023-01-04T00:08:45;3.60;99.90
3919;DHT22;1974;48.670;8.994;2023-01-04T00:11:13;3.60;99.90
3919;DHT22;1974;48.670;8.994;2023-01-04T00:13:42;3.60;99.90
3919;DHT22;1974;48.670;8.994;2023-01-04T00:16:11;3.60;99.90
3919;DHT22;1974;48.670;8.994;2023-01-04T00:18:38;3.60;99.90
3919;DHT22;1974;48.670;8.994;2023-01-04T00:21:07;3.50;99.90
3919;DHT22;1974;48.670;8.994;2023-01-04T00:23:36;3.50;99.90
3919;DHT22;1974;48.670;8.994;2023-01-04T00:26:06;3.50;99.90
3919;DHT22;1974;48.670;8.994;2023-01-04T00:28:33;3.50;99.90
3919;DHT22;1974;48.670;8.994;2023-01-04T00:31:01;3.40;99.90
3919;DHT22;1974;48.670;8.994;2023-01-04T00:33:28;3.40;99.90
3919;DHT22;1974;48.670;8.994;2023-01-04T00:35:55;3.40;99.90
3919;DHT22;1974;48.670;8.994;2023-01-04T00:38:22;3.50;99.90
3919;DHT22;1974;48.670;8.994;2023-01-04T00:40:50;3.50;99.90
3919;DHT22;1974;48.670;8.994;2023-01-04T00:43:16;3.40;99.90
3919;DHT22;1974;48.670;8.994;2023-01-04T00:45:43;3.40;99.90
3919;DHT22;1974;48.670;8.994;2023-01-04T00:48:10;3.50;99.90
3919;DHT22;1974;48.670;8.994;2023-01-04T00:50:37;3.60;99.90
3919;DHT22;1974;48.670;8.994;2023-01-04T00:53:03;3.50;99.90
3919;DHT22;1974;48.670;8.994;2023-01-04T00:55:30;3.50;99.90
3919;DHT22;1974;48.670;8.994;2023-01-04T00:57:58;3.50;99.90
3919;DHT22;1974;48.670;8.994;2023-01-04T01:00:25;3.60;99.90
3919;DHT22;1974;48.670;8.994;2023-01-04T01:02:52;3.50;99.90
3919;DHT22;1974;48.670;8.994;2023-01-04T01:05:19;3.50;99.90
3919;DHT22;1974;48.670;8.994;2023-01-04T01:07:45;3.50;99.90
3919;DHT22;1974;48.670;8.994;2023-01-04T01:10:12;3.50;99.90
3919;DHT22;1974;48.670;8.994;2023-01-04T01:12:39;3.50;99.90
3919;DHT22;1974;48.670;8.994;2023-01-04T01:15:09;3.50;99.90
3919;DHT22;1974;48.670;8.994;2023-01-04T01:17:36;3.50;99.90
3919;DHT22;1974;48.670;8.994;2023-01-04T01:20:04;3.60;99.90
3919;DHT22;1974;48.670;8.994;2023-01-04T01:22:33;3.60;99.90
3919;DHT22;1974;48.670;8.994;2023-01-04T01:25:00;3.70;99.90
3919;DHT22;1974;48.670;8.994;2023-01-04T01:27:27;3.70;99.90
3919;DHT22;1974;48.670;8.994;2023-01-04T01:29:54;3.60;99.90
3919;DHT22;1974;48.670;8.994;2023-01-04T01:32:22;3.70;99.90
3919;DHT22;1974;48.670;8.994;2023-01-04T01:34:48;3.70;99.90
3919;DHT22;1974;48.670;8.994;2023-01-04T01:37:15;3.80;99.90
3919;DHT22;1974;48.670;8.994;2023-01-04T01:39:42;3.80;99.90
3919;DHT22;1974;48.670;8.994;2023-01-04T01:42:17;3.70;99.90
3919;DHT22;1974;48.670;8.994;2023-01-04T01:44:58;3.80;99.90
3919;DHT22;1974;48.670;8.994;2023-01-04T01:47:32;3.70;99.90
3919;DHT22;1974;48.670;8.994;2023-01-04T01:50:02;3.70;99.90
3919;DHT22;1974;48.670;8.994;2023-01-04T01:52:31;3.70;99.90
3919;DHT22;1974;48.670;8.994;2023-01-04T01:55:04;3.60;99.90
3919;DHT22;1974;48.670;8.994;2023-01-04T01:57:33;3.60;99.90
3919;DHT22;1974;48.670;8.994;2023-01-04T02:00:06;3.60;99.90
3919;DHT22;1974;48.670;8.994;2023-01-04T02:02:35;3.60;99.90
3919;DHT22;1974;48.670;8.994;2023-01-04T02:05:02;3.60;99.90
3919;DHT22;1974;48.670;8.994;2023-01-04T02:07:29;3.50;99.90
3919;DHT22;1974;48.670;8.994;2023-01-04T02:09:57;3.50;99.90
3919;DHT22;1974;48.670;8.994;2023-01-04T02:12:24;3.50;99.90
3919;DHT22;1974;48.670;8.994;2023-01-04T02:14:51;3.50;99.90
3919;DHT22;1974;48.670;8.994;2023-01-04T02:17:26;3.40;99.90
3919;DHT22;1974;48.670;8.994;2023-01-04T02:20:21;3.40;99.90
3919;DHT22;1974;48.670;8.994;2023-01-04T02:23:14;3.40;99.90
3919;DHT22;1974;48.670;8.994;2023-01-04T02:29:33;3.40;99.90
3919;DHT22;1974;48.670;8.994;2023-01-04T02:32:08;3.40;99.90
3919;DHT22;1974;48.670;8.994;2023-01-04T02:34:43;3.40;99.90
3919;DHT22;1974;48.670;8.994;2023-01-04T02:37:17;3.40;99.90
3919;DHT22;1974;48.670;8.994;2023-01-04T02:39:52;3.40;99.90
3919;DHT22;1974;48.670;8.994;2023-01-04T02:42:27;3.30;99.90
3919;DHT22;1974;48.670;8.994;2023-01-04T02:45:19;3.30;99.90
3919;DHT22;1974;48.670;8.994;2023-01-04T02:47:47;3.30;99.90
3919;DHT22;1974;48.670;8.994;2023-01-04T02:50:34;3.30;99.90
3919;DHT22;1974;48.670;8.994;2023-01-04T02:53:05;3.30;99.90
3919;DHT22;1974;48.670;8.994;2023-01-04T02:55:43;3.30;99.90
3919;DHT22;1974;48.670;8.994;2023-01-04T02:58:23;3.30;99.90
3919;DHT22;1974;48.670;8.994;2023-01-04T03:00:56;3.30;99.90
3919;DHT22;1974;48.670;8.994;2023-01-04T03:03:48;3.30;99.90
3919;DHT22;1974;48.670;8.994;2023-01-04T03:06:40;3.30;99.90
3919;DHT22;1974;48.670;8.994;2023-01-04T03:09:14;3.30;99.90
3919;DHT22;1974;48.670;8.994;2023-01-04T03:11:46;3.20;99.90
3919;DHT22;1974;48.670;8.994;2023-01-04T03:14:35;3.20;99.90
3919;DHT22;1974;48.670;8.994;2023-01-04T03:17:06;3.20;99.90
3919;DHT22;1974;48.670;8.994;2023-01-04T03:19:36;3.20;99.90
3919;DHT22;1974;48.670;8.994;2023-01-04T03:22:31;3.20;99.90
3919;DHT22;1974;48.670;8.994;2023-01-04T03:25:19;3.20;99.90
3919;DHT22;1974;48.670;8.994;2023-01-04T03:28:06;3.20;99.90
3919;DHT22;1974;48.670;8.994;2023-01-04T03:30:55;3.20;99.90
3919;DHT22;1974;48.670;8.994;2023-01-04T03:33:42;3.20;99.90
3919;DHT22;1974;48.670;8.994;2023-01-04T03:36:36;3.20;99.90
3919;DHT22;1974;48.670;8.994;2023-01-04T03:39:11;3.20;99.90
3919;DHT22;1974;48.670;8.994;2023-01-04T03:42:02;3.20;99.90
3919;DHT22;1974;48.670;8.994;2023-01-04T03:44:53;3.30;99.90
3919;DHT22;1974;48.670;8.994;2023-01-04T03:47:45;3.30;99.90
3919;DHT22;1974;48.670;8.994;2023-01-04T03:50:34;3.30;99.90
3919;DHT22;1974;48.670;8.994;2023-01-04T03:53:05;3.30;99.90
3919;DHT22;1974;48.670;8.994;2023-01-04T03:55:33;3.40;99.90
3919;DHT22;1974;48.670;8.994;2023-01-04T03:58:01;3.40;99.90
3919;DHT22;1974;48.670;8.994;2023-01-04T04:00:28;3.50;99.90
3919;DHT22;1974;48.670;8.994;2023-01-04T04:02:56;3.60;99.90
3919;DHT22;1974;48.670;8.994;2023-01-04T04:05:33;3.60;99.90
3919;DHT22;1974;48.670;8.994;2023-01-04T04:08:20;3.70;99.90
3919;DHT22;1974;48.670;8.994;2023-01-04T04:10:54;3.80;99.90
3919;DHT22;1974;48.670;8.994;2023-01-04T04:13:21;3.80;99.90
3919;DHT22;1974;48.670;8.994;2023-01-04T04:15:51;3.80;99.90
3919;DHT22;1974;48.670;8.994;2023-01-04T04:18:18;3.80;99.90
3919;DHT22;1974;48.670;8.994;2023-01-04T04:20:44;3.80;99.90
3919;DHT22;1974;48.670;8.994;2023-01-04T04:23:11;3.90;99.90
3919;DHT22;1974;48.670;8.994;2023-01-04T04:25:39;4.00;99.90
3919;DHT22;1974;48.670;8.994;2023-01-04T04:28:06;4.00;99.90
3919;DHT22;1974;48.670;8.994;2023-01-04T04:30:33;4.00;99.90
3919;DHT22;1974;48.670;8.994;2023-01-04T04:32:59;4.10;99.90
3919;DHT22;1974;48.670;8.994;2023-01-04T04:35:26;4.10;99.90
3919;DHT22;1974;48.670;8.994;2023-01-04T04:37:53;4.20;99.90
3919;DHT22;1974;48.670;8.994;2023-01-04T04:40:20;4.20;99.90
3919;DHT22;1974;48.670;8.994;2023-01-04T04:43:08;4.20;99.90
3919;DHT22;1974;48.670;8.994;2023-01-04T04:45:35;4.40;99.90
3919;DHT22;1974;48.670;8.994;2023-01-04T04:48:02;4.40;99.90
3919;DHT22;1974;48.670;8.994;2023-01-04T04:50:29;4.40;99.90
3919;DHT22;1974;48.670;8.994;2023-01-04T04:52:56;4.60;99.90
3919;DHT22;1974;48.670;8.994;2023-01-04T04:55:22;4.60;99.90
3919;DHT22;1974;48.670;8.994;2023-01-04T04:57:49;4.60;99.90
3919;DHT22;1974;48.670;8.994;2023-01-04T05:00:18;4.70;99.90
3919;DHT22;1974;48.670;8.994;2023-01-04T05:02:44;4.70;99.90
3919;DHT22;1974;48.670;8.994;2023-01-04T05:05:11;4.70;99.90
3919;DHT22;1974;48.670;8.994;2023-01-04T05:07:38;4.80;99.90
3919;DHT22;1974;48.670;8.994;2023-01-04T05:10:05;4.80;99.90
3919;DHT22;1974;48.670;8.994;2023-01-04T05:12:32;4.80;99.90
3919;DHT22;1974;48.670;8.994;2023-01-04T05:15:17;4.80;99.90
3919;DHT22;1974;48.670;8.994;2023-01-04T05:17:44;4.90;99.90
3919;DHT22;1974;48.670;8.994;2023-01-04T05:20:11;4.90;99.90
3919;DHT22;1974;48.670;8.994;2023-01-04T05:22:38;4.90;99.90
3919;DHT22;1974;48.670;8.994;2023-01-04T05:25:06;5.00;99.90
3919;DHT22;1974;48.670;8.994;2023-01-04T05:27:34;5.00;99.90
3919;DHT22;1974;48.670;8.994;2023-01-04T05:30:01;5.00;99.90
3919;DHT22;1974;48.670;8.994;2023-01-04T05:32:48;5.00;99.90
3919;DHT22;1974;48.670;8.994;2023-01-04T05:35:15;5.10;99.90
3919;DHT22;1974;48.670;8.994;2023-01-04T05:37:42;5.00;99.90
3919;DHT22;1974;48.670;8.994;2023-01-04T05:40:09;5.00;99.90
3919;DHT22;1974;48.670;8.994;2023-01-04T05:42:36;5.10;99.90
3919;DHT22;1974;48.670;8.994;2023-01-04T05:45:03;5.10;99.90
3919;DHT22;1974;48.670;8.994;2023-01-04T05:47:30;5.10;99.90
3919;DHT22;1974;48.670;8.994;2023-01-04T05:49:58;5.20;99.90
3919;DHT22;1974;48.670;8.994;2023-01-04T05:52:25;5.10;99.90
3919;DHT22;1974;48.670;8.994;2023-01-04T05:54:52;5.10;99.90
3919;DHT22;1974;48.670;8.994;2023-01-04T05:57:19;5.10;99.90
3919;DHT22;1974;48.670;8.994;2023-01-04T05:59:45;5.10;99.90
3919;DHT22;1974;48.670;8.994;2023-01-04T06:02:15;5.10;99.90
3919;DHT22;1974;48.670;8.994;2023-01-04T06:04:42;5.20;99.90
3919;DHT22;1974;48.670;8.994;2023-01-04T06:07:10;5.20;99.90
3919;DHT22;1974;48.670;8.994;2023-01-04T06:09:37;5.20;99.90
3919;DHT22;1974;48.670;8.994;2023-01-04T06:12:04;5.30;99.90
3919;DHT22;1974;48.670;8.994;2023-01-04T06:14:31;5.30;99.90
3919;DHT22;1974;48.670;8.994;2023-01-04T06:16:58;5.30;99.90
3919;DHT22;1974;48.670;8.994;2023-01-04T06:19:25;5.30;99.90
3919;DHT22;1974;48.670;8.994;2023-01-04T06:21:52;5.40;99.90
3919;DHT22;1974;48.670;8.994;2023-01-04T06:24:20;5.40;99.90
3919;DHT22;1974;48.670;8.994;2023-01-04T06:26:46;5.50;99.90
3919;DHT22;1974;48.670;8.994;2023-01-04T06:29:13;5.40;99.90
3919;DHT22;1974;48.670;8.994;2023-01-04T06:31:40;5.40;99.90
3919;DHT22;1974;48.670;8.994;2023-01-04T06:34:10;5.50;99.90
3919;DHT22;1974;48.670;8.994;2023-01-04T06:36:37;5.50;99.90
3919;DHT22;1974;48.670;8.994;2023-01-04T06:39:04;5.50;99.90
3919;DHT22;1974;48.670;8.994;2023-01-04T06:41:32;5.50;99.90
3919;DHT22;1974;48.670;8.994;2023-01-04T06:43:59;5.50;99.90
3919;DHT22;1974;48.670;8.994;2023-01-04T06:46:26;5.60;99.90
3919;DHT22;1974;48.670;8.994;2023-01-04T06:48:53;5.60;99.90
3919;DHT22;1974;48.670;8.994;2023-01-04T06:51:20;5.60;99.90
3919;DHT22;1974;48.670;8.994;2023-01-04T06:53:47;5.60;99.90
3919;DHT22;1974;48.670;8.994;2023-01-04T06:56:13;5.60;99.90
3919;DHT22;1974;48.670;8.994;2023-01-04T06:58:41;5.60;99.90
3919;DHT22;1974;48.670;8.994;2023-01-04T07:01:09;5.60;99.90
3919;DHT22;1974;48.670;8.994;2023-01-04T07:03:35;5.60;99.90
3919;DHT22;1974;48.670;8.994;2023-01-04T07:06:03;5.50;99.90
3919;DHT22;1974;48.670;8.994;2023-01-04T07:08:30;5.60;99.90
3919;DHT22;1974;48.670;8.994;2023-01-04T07:10:57;5.60;99.90
3919;DHT22;1974;48.670;8.994;2023-01-04T07:13:24;5.60;99.90
3919;DHT22;1974;48.670;8.994;2023-01-04T07:15:52;5.70;99.90
3919;DHT22;1974;48.670;8.994;2023-01-04T07:18:19;5.70;99.90
3919;DHT22;1974;48.670;8.994;2023-01-04T07:20:46;5.70;99.90
3919;DHT22;1974;48.670;8.994;2023-01-04T07:23:12;5.70;99.90
3919;DHT22;1974;48.670;8.994;2023-01-04T07:25:39;5.70;99.90
3919;DHT22;1974;48.670;8.994;2023-01-04T07:28:06;5.70;99.90
3919;DHT22;1974;48.670;8.994;2023-01-04T07:30:33;5.80;99.90
3919;DHT22;1974;48.670;8.994;2023-01-04T07:33:02;5.70;99.90
3919;DHT22;1974;48.670;8.994;2023-01-04T07:35:28;5.70;99.90
3919;DHT22;1974;48.670;8.994;2023-01-04T07:37:55;5.60;99.90
3919;DHT22;1974;48.670;8.994;2023-01-04T07:40:22;5.60;99.90
3919;DHT22;1974;48.670;8.994;2023-01-04T07:42:53;5.50;99.90
3919;DHT22;1974;48.670;8.994;2023-01-04T07:45:21;5.50;99.90
3919;DHT22;1974;48.670;8.994;2023-01-04T07:47:48;5.50;99.90
3919;DHT22;1974;48.670;8.994;2023-01-04T07:50:16;5.40;99.90
3919;DHT22;1974;48.670;8.994;2023-01-04T07:52:43;5.40;99.90
3919;DHT22;1974;48.670;8.994;2023-01-04T07:55:09;5.40;99.90
3919;DHT22;1974;48.670;8.994;2023-01-04T07:57:36;5.40;99.90
3919;DHT22;1974;48.670;8.994;2023-01-04T08:00:04;5.30;99.90
3919;DHT22;1974;48.670;8.994;2023-01-04T08:02:31;5.30;99.90
3919;DHT22;1974;48.670;8.994;2023-01-04T08:04:57;5.30;99.90
3919;DHT22;1974;48.670;8.994;2023-01-04T08:07:26;5.20;99.90
3919;DHT22;1974;48.670;8.994;2023-01-04T08:09:52;5.20;99.90
3919;DHT22;1974;48.670;8.994;2023-01-04T08:12:19;5.20;99.90
3919;DHT22;1974;48.670;8.994;2023-01-04T08:14:46;5.20;99.90
3919;DHT22;1974;48.670;8.994;2023-01-04T08:17:12;5.20;99.90
3919;DHT22;1974;48.670;8.994;2023-01-04T08:19:39;5.20;99.90
3919;DHT22;1974;48.670;8.994;2023-01-04T08:22:06;5.20;99.90
3919;DHT22;1974;48.670;8.994;2023-01-04T08:24:34;5.20;99.90
3919;DHT22;1974;48.670;8.994;2023-01-04T08:27:00;5.20;99.90
3919;DHT22;1974;48.670;8.994;2023-01-04T08:29:27;5.20;99.90
3919;DHT22;1974;48.670;8.994;2023-01-04T08:31:54;5.30;99.90
3919;DHT22;1974;48.670;8.994;2023-01-04T08:34:21;5.20;99.90
3919;DHT22;1974;48.670;8.994;2023-01-04T08:36:49;5.30;99.90
3919;DHT22;1974;48.670;8.994;2023-01-04T08:39:17;5.30;99.90
3919;DHT22;1974;48.670;8.994;2023-01-04T08:41:47;5.40;99.90
3919;DHT22;1974;48.670;8.994;2023-01-04T08:44:18;5.40;99.90
3919;DHT22;1974;48.670;8.994;2023-01-04T08:46:46;5.40;99.90
3919;DHT22;1974;48.670;8.994;2023-01-04T08:49:13;5.50;99.90
3919;DHT22;1974;48.670;8.994;2023-01-04T08:51:40;5.50;99.90
3919;DHT22;1974;48.670;8.994;2023-01-04T08:54:06;5.50;99.90
3919;DHT22;1974;48.670;8.994;2023-01-04T08:56:33;5.60;99.90
3919;DHT22;1974;48.670;8.994;2023-01-04T08:59:01;5.60;99.90
3919;DHT22;1974;48.670;8.994;2023-01-04T09:01:30;5.60;99.90
3919;DHT22;1974;48.670;8.994;2023-01-04T09:03:57;5.60;99.90
3919;DHT22;1974;48.670;8.994;2023-01-04T09:06:24;5.70;99.90
3919;DHT22;1974;48.670;8.994;2023-01-04T09:08:50;5.70;99.90
3919;DHT22;1974;48.670;8.994;2023-01-04T09:11:19;5.70;99.90
3919;DHT22;1974;48.670;8.994;2023-01-04T09:13:47;5.70;99.90
3919;DHT22;1974;48.670;8.994;2023-01-04T09:16:17;5.80;99.90
3919;DHT22;1974;48.670;8.994;2023-01-04T09:18:44;5.80;99.90
3919;DHT22;1974;48.670;8.994;2023-01-04T09:21:12;5.80;99.90
3919;DHT22;1974;48.670;8.994;2023-01-04T09:23:41;5.90;99.90
3919;DHT22;1974;48.670;8.994;2023-01-04T09:26:09;5.90;99.90
3919;DHT22;1974;48.670;8.994;2023-01-04T09:28:37;6.00;99.90
3919;DHT22;1974;48.670;8.994;2023-01-04T09:31:05;6.00;99.90
3919;DHT22;1974;48.670;8.994;2023-01-04T09:33:33;6.10;99.90
3919;DHT22;1974;48.670;8.994;2023-01-04T09:36:01;6.20;99.90
3919;DHT22;1974;48.670;8.994;2023-01-04T09:38:28;6.20;99.90
3919;DHT22;1974;48.670;8.994;2023-01-04T09:41:01;6.20;99.90
3919;DHT22;1974;48.670;8.994;2023-01-04T09:43:34;6.30;99.90
3919;DHT22;1974;48.670;8.994;2023-01-04T09:46:07;6.30;99.90
3919;DHT22;1974;48.670;8.994;2023-01-04T09:48:39;6.40;99.90
3919;DHT22;1974;48.670;8.994;2023-01-04T09:51:12;6.50;99.90
3919;DHT22;1974;48.670;8.994;2023-01-04T09:53:43;6.50;99.90
3919;DHT22;1974;48.670;8.994;2023-01-04T09:56:17;6.60;99.90
3919;DHT22;1974;48.670;8.994;2023-01-04T09:58:44;6.60;99.90
3919;DHT22;1974;48.670;8.994;2023-01-04T10:01:13;6.60;99.90
3919;DHT22;1974;48.670;8.994;2023-01-04T10:03:49;6.70;99.90
3919;DHT22;1974;48.670;8.994;2023-01-04T10:06:18;6.70;99.90
3919;DHT22;1974;48.670;8.994;2023-01-04T10:08:45;6.80;99.90
3919;DHT22;1974;48.670;8.994;2023-01-04T10:11:22;6.80;99.90
3919;DHT22;1974;48.670;8.994;2023-01-04T10:14:03;6.80;99.90
3919;DHT22;1974;48.670;8.994;2023-01-04T10:16:46;6.80;99.90
3919;DHT22;1974;48.670;8.994;2023-01-04T10:19:27;6.80;99.90
3919;DHT22;1974;48.670;8.994;2023-01-04T10:21:59;6.80;99.90
3919;DHT22;1974;48.670;8.994;2023-01-04T10:24:41;6.90;99.90
3919;DHT22;1974;48.670;8.994;2023-01-04T10:27:16;6.90;99.90
3919;DHT22;1974;48.670;8.994;2023-01-04T10:29:54;6.90;99.90
3919;DHT22;1974;48.670;8.994;2023-01-04T10:32:31;6.90;99.90
3919;DHT22;1974;48.670;8.994;2023-01-04T10:35:01;7.00;99.90
3919;DHT22;1974;48.670;8.994;2023-01-04T10:37:37;7.00;99.90
3919;DHT22;1974;48.670;8.994;2023-01-04T10:40:11;7.10;99.90
3919;DHT22;1974;48.670;8.994;2023-01-04T10:42:43;7.20;99.90
3919;DHT22;1974;48.670;8.994;2023-01-04T10:45:16;7.20;99.90
3919;DHT22;1974;48.670;8.994;2023-01-04T10:47:52;7.30;99.90
3919;DHT22;1974;48.670;8.994;2023-01-04T10:50:26;7.30;99.90
3919;DHT22;1974;48.670;8.994;2023-01-04T10:53:00;7.40;99.90
3919;DHT22;1974;48.670;8.994;2023-01-04T10:55:35;7.60;99.90
3919;DHT22;1974;48.670;8.994;2023-01-04T10:58:08;7.60;99.90
3919;DHT22;1974;48.670;8.994;2023-01-04T11:00:41;7.70;99.90
3919;DHT22;1974;48.670;8.994;2023-01-04T11:03:14;7.70;99.90
3919;DHT22;1974;48.670;8.994;2023-01-04T11:05:46;7.60;99.90
3919;DHT22;1974;48.670;8.994;2023-01-04T11:08:19;7.60;99.90
3919;DHT22;1974;48.670;8.994;2023-01-04T11:10:49;7.70;99.90
3919;DHT22;1974;48.670;8.994;2023-01-04T11:13:17;7.60;99.90
3919;DHT22;1974;48.670;8.994;2023-01-04T11:15:45;7.60;99.90
3919;DHT22;1974;48.670;8.994;2023-01-04T11:18:14;7.70;99.90
3919;DHT22;1974;48.670;8.994;2023-01-04T11:20:41;7.60;99.90
3919;DHT22;1974;48.670;8.994;2023-01-04T11:23:13;7.70;99.90
3919;DHT22;1974;48.670;8.994;2023-01-04T11:25:45;7.70;99.90
3919;DHT22;1974;48.670;8.994;2023-01-04T11:28:16;7.80;99.90
3919;DHT22;1974;48.670;8.994;2023-01-04T11:30:57;7.80;99.90
3919;DHT22;1974;48.670;8.994;2023-01-04T11:33:27;7.80;99.90
3919;DHT22;1974;48.670;8.994;2023-01-04T11:35:55;7.80;99.90
3919;DHT22;1974;48.670;8.994;2023-01-04T11:38:26;7.80;99.90
3919;DHT22;1974;48.670;8.994;2023-01-04T11:40:56;7.80;99.90
3919;DHT22;1974;48.670;8.994;2023-01-04T11:43:24;7.90;99.90
3919;DHT22;1974;48.670;8.994;2023-01-04T11:45:56;8.00;99.90
3919;DHT22;1974;48.670;8.994;2023-01-04T11:48:35;8.00;99.90
3919;DHT22;1974;48.670;8.994;2023-01-04T11:51:03;7.90;99.90
3919;DHT22;1974;48.670;8.994;2023-01-04T11:53:32;8.00;99.90
3919;DHT22;1974;48.670;8.994;2023-01-04T11:56:19;8.10;99.90
3919;DHT22;1974;48.670;8.994;2023-01-04T11:59:07;8.10;99.90
3919;DHT22;1974;48.670;8.994;2023-01-04T12:01:37;8.20;99.90
3919;DHT22;1974;48.670;8.994;2023-01-04T12:04:14;8.20;99.90
3919;DHT22;1974;48.670;8.994;2023-01-04T12:06:45;8.30;99.90
3919;DHT22;1974;48.670;8.994;2023-01-04T12:09:16;8.30;99.90
3919;DHT22;1974;48.670;8.994;2023-01-04T12:11:46;8.40;99.90
3919;DHT22;1974;48.670;8.994;2023-01-04T12:14:23;8.50;99.90
3919;DHT22;1974;48.670;8.994;2023-01-04T12:17:01;8.60;99.90
3919;DHT22;1974;48.670;8.994;2023-01-04T12:19:29;8.70;99.90
3919;DHT22;1974;48.670;8.994;2023-01-04T12:21:58;8.70;99.90
3919;DHT22;1974;48.670;8.994;2023-01-04T12:24:29;8.70;99.90
3919;DHT22;1974;48.670;8.994;2023-01-04T12:26:57;8.70;99.90
3919;DHT22;1974;48.670;8.994;2023-01-04T12:29:52;8.70;99.90
3919;DHT22;1974;48.670;8.994;2023-01-04T12:32:40;8.70;99.90
3919;DHT22;1974;48.670;8.994;2023-01-04T12:35:56;8.70;99.90
3919;DHT22;1974;48.670;8.994;2023-01-04T12:45:16;8.90;99.90
3919;DHT22;1974;48.670;8.994;2023-01-04T12:47:48;8.90;99.90
3919;DHT22;1974;48.670;8.994;2023-01-04T12:53:58;8.90;99.90
3919;DHT22;1974;48.670;8.994;2023-01-04T12:59:33;9.10;99.90
3919;DHT22;1974;48.670;8.994;2023-01-04T13:02:19;9.10;99.90
3919;DHT22;1974;48.670;8.994;2023-01-04T13:04:47;9.20;99.90
3919;DHT22;1974;48.670;8.994;2023-01-04T13:07:19;9.10;99.90
3919;DHT22;1974;48.670;8.994;2023-01-04T13:09:53;9.20;99.90
3919;DHT22;1974;48.670;8.994;2023-01-04T13:15:22;9.20;99.90
3919;DHT22;1974;48.670;8.994;2023-01-04T13:17:51;9.20;99.90
3919;DHT22;1974;48.670;8.994;2023-01-04T13:20:20;9.20;99.90
3919;DHT22;1974;48.670;8.994;2023-01-04T13:22:51;9.30;99.90
3919;DHT22;1974;48.670;8.994;2023-01-04T13:25:21;9.30;99.90
3919;DHT22;1974;48.670;8.994;2023-01-04T13:27:56;9.40;99.90
3919;DHT22;1974;48.670;8.994;2023-01-04T13:30:32;9.40;99.90
3919;DHT22;1974;48.670;8.994;2023-01-04T13:33:07;9.40;99.90
3919;DHT22;1974;48.670;8.994;2023-01-04T13:35:35;9.40;99.90
3919;DHT22;1974;48.670;8.994;2023-01-04T13:38:02;9.50;99.90
3919;DHT22;1974;48.670;8.994;2023-01-04T13:40:42;9.50;99.90
3919;DHT22;1974;48.670;8.994;2023-01-04T13:43:30;9.40;99.90
3919;DHT22;1974;48.670;8.994;2023-01-04T13:46:08;9.40;99.90
3919;DHT22;1974;48.670;8.994;2023-01-04T13:48:39;9.40;99.90
3919;DHT22;1974;48.670;8.994;2023-01-04T13:51:13;9.40;99.90
3919;DHT22;1974;48.670;8.994;2023-01-04T13:53:40;9.40;99.90
3919;DHT22;1974;48.670;8.994;2023-01-04T13:56:18;9.40;99.90
3919;DHT22;1974;48.670;8.994;2023-01-04T13:58:45;9.40;99.90
3919;DHT22;1974;48.670;8.994;2023-01-04T14:01:15;9.40;99.90
3919;DHT22;1974;48.670;8.994;2023-01-04T14:03:44;9.30;99.90
3919;DHT22;1974;48.670;8.994;2023-01-04T14:06:19;9.40;99.90
3919;DHT22;1974;48.670;8.994;2023-01-04T14:08:54;9.30;99.90
3919;DHT22;1974;48.670;8.994;2023-01-04T14:11:25;9.30;99.90
3919;DHT22;1974;48.670;8.994;2023-01-04T14:14:23;9.30;99.90
3919;DHT22;1974;48.670;8.994;2023-01-04T14:17:02;9.20;99.90
3919;DHT22;1974;48.670;8.994;2023-01-04T14:19:40;9.30;99.90
3919;DHT22;1974;48.670;8.994;2023-01-04T14:28:34;9.30;99.90
3919;DHT22;1974;48.670;8.994;2023-01-04T14:31:20;9.30;99.90
3919;DHT22;1974;48.670;8.994;2023-01-04T14:33:49;9.30;99.90
3919;DHT22;1974;48.670;8.994;2023-01-04T14:36:19;9.30;99.90
3919;DHT22;1974;48.670;8.994;2023-01-04T14:38:53;9.30;99.90
3919;DHT22;1974;48.670;8.994;2023-01-04T14:41:23;9.30;99.90
3919;DHT22;1974;48.670;8.994;2023-01-04T14:44:02;9.20;99.90
3919;DHT22;1974;48.670;8.994;2023-01-04T14:46:31;9.20;99.90
3919;DHT22;1974;48.670;8.994;2023-01-04T14:48:58;9.20;99.90
3919;DHT22;1974;48.670;8.994;2023-01-04T14:51:30;9.10;99.90
3919;DHT22;1974;48.670;8.994;2023-01-04T14:53:58;9.10;99.90
3919;DHT22;1974;48.670;8.994;2023-01-04T14:56:24;9.10;99.90
3919;DHT22;1974;48.670;8.994;2023-01-04T14:58:53;9.10;99.90
3919;DHT22;1974;48.670;8.994;2023-01-04T15:01:19;9.10;99.90
3919;DHT22;1974;48.670;8.994;2023-01-04T15:03:46;9.10;99.90
3919;DHT22;1974;48.670;8.994;2023-01-04T15:06:13;9.10;99.90
3919;DHT22;1974;48.670;8.994;2023-01-04T15:08:40;9.10;99.90
3919;DHT22;1974;48.670;8.994;2023-01-04T15:11:08;9.00;99.90
3919;DHT22;1974;48.670;8.994;2023-01-04T15:13:35;9.10;99.90
3919;DHT22;1974;48.670;8.994;2023-01-04T15:16:04;9.00;99.90
3919;DHT22;1974;48.670;8.994;2023-01-04T15:18:31;8.90;99.90
3919;DHT22;1974;48.670;8.994;2023-01-04T15:20:58;8.90;99.90
3919;DHT22;1974;48.670;8.994;2023-01-04T15:23:24;8.90;99.90
3919;DHT22;1974;48.670;8.994;2023-01-04T15:25:51;8.90;99.90
3919;DHT22;1974;48.670;8.994;2023-01-04T15:28:18;8.90;99.90
3919;DHT22;1974;48.670;8.994;2023-01-04T15:30:46;8.80;99.90
3919;DHT22;1974;48.670;8.994;2023-01-04T15:33:15;8.80;99.90
3919;DHT22;1974;48.670;8.994;2023-01-04T15:35:41;8.80;99.90
3919;DHT22;1974;48.670;8.994;2023-01-04T15:38:09;8.80;99.90
3919;DHT22;1974;48.670;8.994;2023-01-04T15:40:35;8.80;99.90
3919;DHT22;1974;48.670;8.994;2023-01-04T15:43:02;8.80;99.90
3919;DHT22;1974;48.670;8.994;2023-01-04T15:45:30;8.70;99.90
3919;DHT22;1974;48.670;8.994;2023-01-04T15:47:57;8.80;99.90
3919;DHT22;1974;48.670;8.994;2023-01-04T15:50:29;8.80;99.90
3919;DHT22;1974;48.670;8.994;2023-01-04T15:52:56;8.80;99.90
3919;DHT22;1974;48.670;8.994;2023-01-04T15:55:23;8.80;99.90
3919;DHT22;1974;48.670;8.994;2023-01-04T15:57:50;8.80;99.90
3919;DHT22;1974;48.670;8.994;2023-01-04T16:00:17;8.80;99.90
3919;DHT22;1974;48.670;8.994;2023-01-04T16:02:44;8.90;99.90
3919;DHT22;1974;48.670;8.994;2023-01-04T16:05:10;8.90;99.90
3919;DHT22;1974;48.670;8.994;2023-01-04T16:07:38;8.90;99.90
3919;DHT22;1974;48.670;8.994;2023-01-04T16:10:06;8.90;99.90
3919;DHT22;1974;48.670;8.994;2023-01-04T16:12:33;8.90;99.90
3919;DHT22;1974;48.670;8.994;2023-01-04T16:15:11;8.90;99.90
3919;DHT22;1974;48.670;8.994;2023-01-04T16:17:38;8.90;99.90
3919;DHT22;1974;48.670;8.994;2023-01-04T16:20:06;8.80;99.90
3919;DHT22;1974;48.670;8.994;2023-01-04T16:22:33;8.80;99.90
3919;DHT22;1974;48.670;8.994;2023-01-04T16:25:01;8.80;99.90
3919;DHT22;1974;48.670;8.994;2023-01-04T16:27:30;8.90;99.90
3919;DHT22;1974;48.670;8.994;2023-01-04T16:29:58;8.90;99.90
3919;DHT22;1974;48.670;8.994;2023-01-04T16:32:25;9.00;99.90
3919;DHT22;1974;48.670;8.994;2023-01-04T16:34:52;9.00;99.90
3919;DHT22;1974;48.670;8.994;2023-01-04T16:37:19;9.00;99.90
3919;DHT22;1974;48.670;8.994;2023-01-04T16:39:47;9.00;99.90
3919;DHT22;1974;48.670;8.994;2023-01-04T16:42:17;9.00;99.90
3919;DHT22;1974;48.670;8.994;2023-01-04T16:44:43;9.10;99.90
3919;DHT22;1974;48.670;8.994;2023-01-04T16:47:10;9.10;99.90
3919;DHT22;1974;48.670;8.994;2023-01-04T16:49:37;9.10;99.90
3919;DHT22;1974;48.670;8.994;2023-01-04T16:52:04;9.10;99.90
3919;DHT22;1974;48.670;8.994;2023-01-04T16:54:35;9.10;99.90
3919;DHT22;1974;48.670;8.994;2023-01-04T16:57:01;9.10;99.90
3919;DHT22;1974;48.670;8.994;2023-01-04T16:59:30;9.10;99.90
3919;DHT22;1974;48.670;8.994;2023-01-04T17:01:56;9.10;99.90
3919;DHT22;1974;48.670;8.994;2023-01-04T17:04:23;9.10;99.90
3919;DHT22;1974;48.670;8.994;2023-01-04T17:06:50;9.10;99.90